Nearby METAR Reports

 

KRYN - Tucson/Ryan Fld, Arizona, USA
Distance from station: SSW 16mi, 26km
Updated: Fri, 19-Oct-2018 7:45pm MST
Few Clouds
Few Clouds
 Wind from SW
Wind: SW 5 mph , 7 km/h
Temperature: 73°F , 23°C
Dew Point: 54°F , 12°C
Humidity: 50%
Barometer: 30.02 inHg , 1016.6 hPa
Clouds: Few Clouds
Visibility: 10 miles , 16 km
Cloud details: Few Clouds 7500 ft
2018/10/20 02:45 KRYN 200245Z 23004KT 10SM FEW075 23/12 A3002 RMK LAST
KTUS - Tucson, Arizona, USA
Distance from station: SSE 18mi, 28km
Updated: Fri, 19-Oct-2018 7:53pm MST
Mostly cloudy
Mostly cloudy
 Wind from E
Wind: E 6 mph , 9 km/h
Temperature: 73°F , 23°C
Dew Point: 54°F , 12°C
Humidity: 50%
Barometer: 30.02 inHg , 1016.6 hPa
Clouds: Mostly cloudy
Visibility: 10 miles , 16 km
Cloud details: Mostly cloudy 7500 ft
Mostly cloudy 9000 ft
2018/10/20 02:53 KTUS 200253Z 10005KT 10SM BKN075 BKN090 23/12 A3002 RMK AO2 SLP132 T02330122 53013
 
KDMA - Davis/Tucson, Arizona, USA
Distance from station: SE 18mi, 29km
Updated: Fri, 19-Oct-2018 7:58pm MST
Mostly cloudy
Mostly cloudy
 Wind from SE
Wind: SE 6 mph , 9 km/h
Temperature: 72°F , 22°C
Dew Point: 55°F , 13°C
Humidity: 57%
Barometer: 30.01 inHg , 1016.3 hPa
Clouds: Mostly cloudy
Visibility: 10 miles , 16 km
Cloud details: Partly cloudy 7000 ft
Mostly cloudy 9000 ft
2018/10/20 02:58 KDMA 200258Z AUTO 13005KT 10SM SCT070 BKN090 22/13 A3001 RMK AO2 SLP133 T02240132 52012 $
KCGZ - Casa Granda, Arizona, USA
Distance from station: NW 57mi, 92km
Updated: Fri, 19-Oct-2018 7:56pm MST
Clear
Clear
 Wind from N
Wind: N 6 mph , 9 km/h
Temperature: 73°F , 23°C
Dew Point: 52°F , 11°C
Humidity: 47%
Barometer: 29.98 inHg , 1015.2 hPa
Clouds: Clear
Visibility: 9 miles , 14 km
2018/10/20 02:56 KCGZ 200256Z AUTO 35005KT 9SM CLR 23/11 A2998 RMK AO2 SLP141 6//// T02280111 53008 $
 
KALK - Pioneer Airfield, Arizona, USA
Distance from station: SE 65mi, 104km
Updated: Fri, 19-Oct-2018 7:56pm MST
Clear
Clear
 Wind from E
Wind: E 12 mph , 19 km/h
Temperature: 59°F , 15°C
Dew Point: 52°F , 11°C
Humidity: 77%
Barometer: 30.16 inHg , 1021.3 hPa
Clouds: Clear
Visibility: 10 miles , 16 km
2018/10/20 02:56 KALK 200256Z AUTO 08010KT 10SM CLR 15/11 A3016 RMK AO2 SLP152 T01500106 51015
KOLS - Nogales, Arizona, USA
Distance from station: S 67mi, 108km
Updated: Fri, 19-Oct-2018 7:54pm MST
Clear
Clear
 Wind from NE
Wind: NE 6 mph , 9 km/h
Temperature: 66°F , 19°C
Dew Point: 50°F , 10°C
Humidity: 56%
Barometer: 30.07 inHg , 1018.3 hPa
Clouds: Clear
Visibility: 10 miles , 16 km
2018/10/20 02:54 KOLS 200254Z AUTO 05005KT 10SM CLR 19/10 A3007 RMK AO2 SLP134 T01940100 53012
 
KFHU - Fort Huachuca, Arizona, USA
Distance from station: SE 69mi, 110km
Updated: Fri, 19-Oct-2018 7:58pm MST
Overcast
Overcast
 Wind from E
Wind: E 6 mph , 9 km/h
Temperature: 64°F , 18°C
Dew Point: 52°F , 11°C
Humidity: 64%
Barometer: 30.16 inHg , 1021.3 hPa
Clouds: Overcast
Visibility: 10 miles , 16 km
Cloud details: Overcast 4300 ft
2018/10/20 02:58 KFHU 200258Z AUTO 08005KT 10SM OVC043 18/11 A3016 RMK AO2 SLP170 T01790114 52014
KIWA - Chandler/Mesa, Arizona, USA
Distance from station: NNW 73mi, 117km
Updated: Fri, 19-Oct-2018 7:59pm MST
Clear
Clear
 Wind from ENE
Wind: ENE 5 mph , 7 km/h
Temperature: 73°F , 23°C
Dew Point: 54°F , 12°C
Humidity: 50%
Barometer: 29.97 inHg , 1014.9 hPa
Clouds: Clear
Visibility: 20 miles , 32 km
2018/10/20 02:59 KIWA 200259Z 07004KT 20SM SKC 23/12 A2997